sensor_id;sensor_type;location;lat;lon;timestamp;pressure;altitude;pressure_sealevel;temperature;humidity
10618;BME280;5356;43.526;26.534;2023-04-16T00:00:58;98689.34;;;13.80;100.00
10618;BME280;5356;43.526;26.534;2023-04-16T00:03:33;98696.00;;;13.77;100.00
10618;BME280;5356;43.526;26.534;2023-04-16T00:05:58;98692.22;;;13.73;100.00
10618;BME280;5356;43.526;26.534;2023-04-16T00:08:24;98685.53;;;13.76;100.00
10618;BME280;5356;43.526;26.534;2023-04-16T00:10:52;98684.50;;;13.77;100.00
10618;BME280;5356;43.526;26.534;2023-04-16T00:13:17;98683.94;;;13.75;100.00
10618;BME280;5356;43.526;26.534;2023-04-16T00:15:43;98682.34;;;13.74;100.00
10618;BME280;5356;43.526;26.534;2023-04-16T00:18:08;98682.38;;;13.79;100.00
10618;BME280;5356;43.526;26.534;2023-04-16T00:20:34;98679.00;;;13.88;100.00
10618;BME280;5356;43.526;26.534;2023-04-16T00:22:59;98680.66;;;13.95;100.00
10618;BME280;5356;43.526;26.534;2023-04-16T00:25:25;98682.00;;;13.97;100.00
10618;BME280;5356;43.526;26.534;2023-04-16T00:27:50;98680.75;;;14.05;100.00
10618;BME280;5356;43.526;26.534;2023-04-16T00:30:16;98687.47;;;14.07;100.00
10618;BME280;5356;43.526;26.534;2023-04-16T00:32:41;98688.84;;;14.10;100.00
10618;BME280;5356;43.526;26.534;2023-04-16T00:35:13;98687.53;;;14.18;100.00
10618;BME280;5356;43.526;26.534;2023-04-16T00:37:41;98689.97;;;14.19;100.00
10618;BME280;5356;43.526;26.534;2023-04-16T00:40:07;98687.03;;;14.21;100.00
10618;BME280;5356;43.526;26.534;2023-04-16T00:42:33;98690.44;;;14.11;100.00
10618;BME280;5356;43.526;26.534;2023-04-16T00:44:59;98699.22;;;14.06;100.00
10618;BME280;5356;43.526;26.534;2023-04-16T00:47:24;98697.56;;;14.00;100.00
10618;BME280;5356;43.526;26.534;2023-04-16T00:49:52;98705.16;;;14.08;100.00
10618;BME280;5356;43.526;26.534;2023-04-16T00:52:17;98701.91;;;14.06;100.00
10618;BME280;5356;43.526;26.534;2023-04-16T00:54:43;98698.94;;;14.03;100.00
10618;BME280;5356;43.526;26.534;2023-04-16T00:57:09;98695.19;;;14.04;100.00
10618;BME280;5356;43.526;26.534;2023-04-16T00:59:35;98698.06;;;13.97;100.00
10618;BME280;5356;43.526;26.534;2023-04-16T01:02:00;98689.94;;;13.87;100.00
10618;BME280;5356;43.526;26.534;2023-04-16T01:04:26;98694.13;;;13.78;100.00
10618;BME280;5356;43.526;26.534;2023-04-16T01:06:51;98690.88;;;13.70;100.00
10618;BME280;5356;43.526;26.534;2023-04-16T01:09:16;98691.88;;;13.64;100.00
10618;BME280;5356;43.526;26.534;2023-04-16T01:11:42;98694.56;;;13.64;100.00
10618;BME280;5356;43.526;26.534;2023-04-16T01:14:07;98687.88;;;13.67;100.00
10618;BME280;5356;43.526;26.534;2023-04-16T01:16:33;98688.69;;;13.67;100.00
10618;BME280;5356;43.526;26.534;2023-04-16T01:18:58;98681.91;;;13.60;100.00
10618;BME280;5356;43.526;26.534;2023-04-16T01:21:24;98682.66;;;13.55;100.00
10618;BME280;5356;43.526;26.534;2023-04-16T01:23:50;98675.13;;;13.52;100.00
10618;BME280;5356;43.526;26.534;2023-04-16T01:26:16;98668.69;;;13.48;100.00
10618;BME280;5356;43.526;26.534;2023-04-16T01:28:44;98672.59;;;13.40;100.00
10618;BME280;5356;43.526;26.534;2023-04-16T01:31:10;98664.28;;;13.37;100.00
10618;BME280;5356;43.526;26.534;2023-04-16T01:33:35;98667.75;;;13.37;100.00
10618;BME280;5356;43.526;26.534;2023-04-16T01:36:01;98670.78;;;13.46;100.00
10618;BME280;5356;43.526;26.534;2023-04-16T01:38:26;98666.97;;;13.64;100.00
10618;BME280;5356;43.526;26.534;2023-04-16T01:40:58;98674.53;;;13.72;100.00
10618;BME280;5356;43.526;26.534;2023-04-16T01:43:23;98667.38;;;13.78;100.00
10618;BME280;5356;43.526;26.534;2023-04-16T01:45:49;98663.38;;;13.80;100.00
10618;BME280;5356;43.526;26.534;2023-04-16T01:48:15;98651.66;;;13.86;100.00
10618;BME280;5356;43.526;26.534;2023-04-16T01:50:40;98657.84;;;13.92;100.00
10618;BME280;5356;43.526;26.534;2023-04-16T01:53:06;98660.59;;;13.97;100.00
10618;BME280;5356;43.526;26.534;2023-04-16T01:55:34;98653.06;;;13.94;100.00
10618;BME280;5356;43.526;26.534;2023-04-16T01:58:00;98654.13;;;13.93;100.00
10618;BME280;5356;43.526;26.534;2023-04-16T02:00:25;98658.41;;;13.94;100.00
10618;BME280;5356;43.526;26.534;2023-04-16T02:02:51;98656.81;;;13.93;100.00
10618;BME280;5356;43.526;26.534;2023-04-16T02:05:16;98651.75;;;13.97;100.00
10618;BME280;5356;43.526;26.534;2023-04-16T02:07:42;98653.53;;;13.86;100.00
10618;BME280;5356;43.526;26.534;2023-04-16T02:10:08;98655.06;;;13.77;100.00
10618;BME280;5356;43.526;26.534;2023-04-16T02:12:34;98648.03;;;13.70;100.00
10618;BME280;5356;43.526;26.534;2023-04-16T02:15:00;98646.72;;;13.73;100.00
10618;BME280;5356;43.526;26.534;2023-04-16T02:17:25;98646.22;;;13.76;100.00
10618;BME280;5356;43.526;26.534;2023-04-16T02:19:53;98645.94;;;13.78;100.00
10618;BME280;5356;43.526;26.534;2023-04-16T02:22:18;98650.59;;;13.87;100.00
10618;BME280;5356;43.526;26.534;2023-04-16T02:24:44;98641.56;;;13.93;100.00
10618;BME280;5356;43.526;26.534;2023-04-16T02:27:19;98646.63;;;13.95;100.00
10618;BME280;5356;43.526;26.534;2023-04-16T02:29:45;98650.63;;;13.92;100.00
10618;BME280;5356;43.526;26.534;2023-04-16T02:32:10;98649.06;;;13.97;100.00
10618;BME280;5356;43.526;26.534;2023-04-16T02:34:36;98646.63;;;13.95;100.00
10618;BME280;5356;43.526;26.534;2023-04-16T02:37:04;98655.75;;;13.94;100.00
10618;BME280;5356;43.526;26.534;2023-04-16T02:39:29;98654.09;;;13.88;100.00
10618;BME280;5356;43.526;26.534;2023-04-16T02:41:54;98652.66;;;13.80;100.00
10618;BME280;5356;43.526;26.534;2023-04-16T02:44:20;98662.53;;;13.75;100.00
10618;BME280;5356;43.526;26.534;2023-04-16T02:46:46;98658.13;;;13.63;100.00
10618;BME280;5356;43.526;26.534;2023-04-16T02:49:11;98656.59;;;13.73;100.00
10618;BME280;5356;43.526;26.534;2023-04-16T02:51:36;98659.38;;;13.83;100.00
10618;BME280;5356;43.526;26.534;2023-04-16T02:54:30;98668.78;;;13.85;100.00
10618;BME280;5356;43.526;26.534;2023-04-16T02:56:56;98663.09;;;13.77;100.00
10618;BME280;5356;43.526;26.534;2023-04-16T02:59:28;98657.97;;;13.75;100.00
10618;BME280;5356;43.526;26.534;2023-04-16T03:01:54;98653.41;;;13.70;100.00
10618;BME280;5356;43.526;26.534;2023-04-16T03:04:20;98651.22;;;13.67;100.00
10618;BME280;5356;43.526;26.534;2023-04-16T03:06:45;98664.09;;;13.70;100.00
10618;BME280;5356;43.526;26.534;2023-04-16T03:09:10;98657.56;;;13.61;100.00
10618;BME280;5356;43.526;26.534;2023-04-16T03:11:36;98659.28;;;13.45;100.00
10618;BME280;5356;43.526;26.534;2023-04-16T03:14:01;98654.09;;;13.34;100.00
10618;BME280;5356;43.526;26.534;2023-04-16T03:16:27;98652.72;;;13.31;100.00
10618;BME280;5356;43.526;26.534;2023-04-16T03:18:52;98655.38;;;13.31;100.00
10618;BME280;5356;43.526;26.534;2023-04-16T03:21:18;98652.72;;;13.31;100.00
10618;BME280;5356;43.526;26.534;2023-04-16T03:23:43;98660.25;;;13.34;100.00
10618;BME280;5356;43.526;26.534;2023-04-16T03:26:09;98653.00;;;13.35;100.00
10618;BME280;5356;43.526;26.534;2023-04-16T03:28:34;98655.44;;;13.36;100.00
10618;BME280;5356;43.526;26.534;2023-04-16T03:31:00;98650.41;;;13.40;100.00
10618;BME280;5356;43.526;26.534;2023-04-16T03:33:25;98652.00;;;13.41;100.00
10618;BME280;5356;43.526;26.534;2023-04-16T03:35:57;98660.91;;;13.46;100.00
10618;BME280;5356;43.526;26.534;2023-04-16T03:38:24;98654.25;;;13.49;100.00
10618;BME280;5356;43.526;26.534;2023-04-16T03:40:52;98661.25;;;13.55;100.00
10618;BME280;5356;43.526;26.534;2023-04-16T03:43:18;98663.41;;;13.58;100.00
10618;BME280;5356;43.526;26.534;2023-04-16T03:45:51;98667.78;;;13.64;100.00
10618;BME280;5356;43.526;26.534;2023-04-16T03:48:16;98669.09;;;13.62;100.00
10618;BME280;5356;43.526;26.534;2023-04-16T03:50:45;98672.53;;;13.57;100.00
10618;BME280;5356;43.526;26.534;2023-04-16T03:53:11;98681.63;;;13.56;100.00
10618;BME280;5356;43.526;26.534;2023-04-16T03:55:37;98681.63;;;13.56;100.00
10618;BME280;5356;43.526;26.534;2023-04-16T03:58:02;98687.84;;;13.62;100.00
10618;BME280;5356;43.526;26.534;2023-04-16T04:00:29;98678.22;;;13.66;100.00
10618;BME280;5356;43.526;26.534;2023-04-16T04:02:55;98688.88;;;13.61;100.00
10618;BME280;5356;43.526;26.534;2023-04-16T04:05:21;98682.41;;;13.57;100.00
10618;BME280;5356;43.526;26.534;2023-04-16T04:07:46;98676.78;;;13.53;100.00
10618;BME280;5356;43.526;26.534;2023-04-16T04:10:12;98685.03;;;13.52;100.00
10618;BME280;5356;43.526;26.534;2023-04-16T04:12:37;98679.47;;;13.58;100.00
10618;BME280;5356;43.526;26.534;2023-04-16T04:15:03;98685.16;;;13.62;100.00
10618;BME280;5356;43.526;26.534;2023-04-16T04:17:28;98683.84;;;13.64;100.00
10618;BME280;5356;43.526;26.534;2023-04-16T04:19:54;98689.00;;;13.71;100.00
10618;BME280;5356;43.526;26.534;2023-04-16T04:22:20;98694.34;;;13.71;100.00
10618;BME280;5356;43.526;26.534;2023-04-16T04:24:45;98693.03;;;13.74;100.00
10618;BME280;5356;43.526;26.534;2023-04-16T04:27:15;98694.66;;;13.75;100.00
10618;BME280;5356;43.526;26.534;2023-04-16T04:29:41;98709.16;;;13.79;100.00
10618;BME280;5356;43.526;26.534;2023-04-16T04:32:09;98707.53;;;13.78;100.00
10618;BME280;5356;43.526;26.534;2023-04-16T04:34:35;98708.38;;;13.83;100.00
10618;BME280;5356;43.526;26.534;2023-04-16T04:37:00;98712.22;;;13.92;100.00
10618;BME280;5356;43.526;26.534;2023-04-16T04:39:26;98714.66;;;13.94;100.00
10618;BME280;5356;43.526;26.534;2023-04-16T04:41:51;98712.03;;;13.99;100.00
10618;BME280;5356;43.526;26.534;2023-04-16T04:44:17;98715.28;;;14.06;100.00
10618;BME280;5356;43.526;26.534;2023-04-16T04:46:43;98713.22;;;14.13;100.00
10618;BME280;5356;43.526;26.534;2023-04-16T04:49:09;98708.13;;;14.12;100.00
10618;BME280;5356;43.526;26.534;2023-04-16T04:51:39;98706.91;;;14.25;100.00
10618;BME280;5356;43.526;26.534;2023-04-16T04:54:05;98711.22;;;14.31;100.00
10618;BME280;5356;43.526;26.534;2023-04-16T04:56:30;98695.72;;;14.33;100.00
10618;BME280;5356;43.526;26.534;2023-04-16T04:58:56;98703.53;;;14.40;100.00
10618;BME280;5356;43.526;26.534;2023-04-16T05:01:21;98694.16;;;14.42;100.00
10618;BME280;5356;43.526;26.534;2023-04-16T05:03:47;98701.25;;;14.53;100.00
10618;BME280;5356;43.526;26.534;2023-04-16T05:06:12;98708.00;;;14.61;100.00
10618;BME280;5356;43.526;26.534;2023-04-16T05:08:38;98699.78;;;14.73;100.00
10618;BME280;5356;43.526;26.534;2023-04-16T05:11:03;98712.75;;;14.91;100.00
10618;BME280;5356;43.526;26.534;2023-04-16T05:13:29;98700.47;;;15.05;100.00
10618;BME280;5356;43.526;26.534;2023-04-16T05:15:54;98702.69;;;15.19;100.00
10618;BME280;5356;43.526;26.534;2023-04-16T05:18:20;98710.56;;;15.41;100.00
10618;BME280;5356;43.526;26.534;2023-04-16T05:20:45;98708.50;;;15.63;100.00
10618;BME280;5356;43.526;26.534;2023-04-16T05:23:11;98714.22;;;15.77;100.00
10618;BME280;5356;43.526;26.534;2023-04-16T05:25:36;98710.19;;;15.90;100.00
10618;BME280;5356;43.526;26.534;2023-04-16T05:28:01;98704.03;;;16.05;100.00
10618;BME280;5356;43.526;26.534;2023-04-16T05:30:27;98700.56;;;16.20;100.00
10618;BME280;5356;43.526;26.534;2023-04-16T05:32:52;98701.38;;;16.25;100.00
10618;BME280;5356;43.526;26.534;2023-04-16T05:35:18;98695.47;;;16.33;100.00
10618;BME280;5356;43.526;26.534;2023-04-16T05:37:44;98697.06;;;16.39;100.00
10618;BME280;5356;43.526;26.534;2023-04-16T05:40:13;98698.69;;;16.46;100.00
10618;BME280;5356;43.526;26.534;2023-04-16T05:42:38;98701.09;;;16.52;100.00
10618;BME280;5356;43.526;26.534;2023-04-16T05:45:05;98697.06;;;16.50;100.00
10618;BME280;5356;43.526;26.534;2023-04-16T05:47:30;98708.06;;;16.58;100.00
10618;BME280;5356;43.526;26.534;2023-04-16T05:49:56;98700.28;;;16.57;100.00
10618;BME280;5356;43.526;26.534;2023-04-16T05:52:21;98709.41;;;16.71;100.00
10618;BME280;5356;43.526;26.534;2023-04-16T05:54:47;98692.47;;;16.76;100.00
10618;BME280;5356;43.526;26.534;2023-04-16T05:57:12;98692.72;;;16.90;100.00
10618;BME280;5356;43.526;26.534;2023-04-16T05:59:38;98697.84;;;16.91;100.00
10618;BME280;5356;43.526;26.534;2023-04-16T06:02:04;98690.53;;;17.02;100.00
10618;BME280;5356;43.526;26.534;2023-04-16T06:04:29;98696.66;;;17.18;100.00
10618;BME280;5356;43.526;26.534;2023-04-16T06:06:55;98704.47;;;17.19;100.00
10618;BME280;5356;43.526;26.534;2023-04-16T06:09:21;98700.38;;;17.32;100.00
10618;BME280;5356;43.526;26.534;2023-04-16T06:11:46;98694.97;;;17.37;100.00
10618;BME280;5356;43.526;26.534;2023-04-16T06:14:12;98689.56;;;17.47;100.00
10618;BME280;5356;43.526;26.534;2023-04-16T06:16:38;98691.94;;;17.54;100.00
10618;BME280;5356;43.526;26.534;2023-04-16T06:19:03;98690.88;;;17.50;100.00
10618;BME280;5356;43.526;26.534;2023-04-16T06:21:28;98695.16;;;17.56;100.00
10618;BME280;5356;43.526;26.534;2023-04-16T06:23:56;98692.41;;;17.66;100.00
10618;BME280;5356;43.526;26.534;2023-04-16T06:26:22;98691.31;;;17.72;100.00
10618;BME280;5356;43.526;26.534;2023-04-16T06:28:48;98691.25;;;17.83;100.00
10618;BME280;5356;43.526;26.534;2023-04-16T06:31:13;98690.78;;;17.70;100.00
10618;BME280;5356;43.526;26.534;2023-04-16T06:33:39;98690.00;;;17.65;100.00
10618;BME280;5356;43.526;26.534;2023-04-16T06:36:04;98694.81;;;17.68;100.00
10618;BME280;5356;43.526;26.534;2023-04-16T06:38:30;98691.88;;;17.64;100.00
10618;BME280;5356;43.526;26.534;2023-04-16T06:40:55;98696.19;;;17.65;100.00
10618;BME280;5356;43.526;26.534;2023-04-16T06:43:21;98697.28;;;17.59;100.00
10618;BME280;5356;43.526;26.534;2023-04-16T06:45:46;98696.75;;;17.57;100.00
10618;BME280;5356;43.526;26.534;2023-04-16T06:48:12;98703.25;;;17.56;100.00
10618;BME280;5356;43.526;26.534;2023-04-16T06:50:38;98703.00;;;17.53;100.00
10618;BME280;5356;43.526;26.534;2023-04-16T06:53:04;98712.13;;;17.57;100.00
10618;BME280;5356;43.526;26.534;2023-04-16T06:55:30;98714.56;;;17.58;100.00
10618;BME280;5356;43.526;26.534;2023-04-16T06:57:55;98718.81;;;17.64;100.00
10618;BME280;5356;43.526;26.534;2023-04-16T07:00:21;98721.75;;;17.73;100.00
10618;BME280;5356;43.526;26.534;2023-04-16T07:02:46;98718.19;;;17.83;100.00
10618;BME280;5356;43.526;26.534;2023-04-16T07:05:12;98721.16;;;17.86;100.00
10618;BME280;5356;43.526;26.534;2023-04-16T07:07:37;98729.13;;;18.02;100.00
10618;BME280;5356;43.526;26.534;2023-04-16T07:10:03;98731.72;;;18.17;100.00
10618;BME280;5356;43.526;26.534;2023-04-16T07:12:30;98722.06;;;18.11;100.00
10618;BME280;5356;43.526;26.534;2023-04-16T07:14:56;98728.13;;;18.32;100.00
10618;BME280;5356;43.526;26.534;2023-04-16T07:17:21;98731.53;;;18.43;100.00
10618;BME280;5356;43.526;26.534;2023-04-16T07:19:53;98727.16;;;18.52;100.00
10618;BME280;5356;43.526;26.534;2023-04-16T07:22:20;98731.97;;;18.55;100.00
10618;BME280;5356;43.526;26.534;2023-04-16T07:25:18;98732.19;;;18.63;100.00
10618;BME280;5356;43.526;26.534;2023-04-16T07:27:44;98734.53;;;18.70;100.00
10618;BME280;5356;43.526;26.534;2023-04-16T07:30:09;98734.25;;;18.72;100.00
10618;BME280;5356;43.526;26.534;2023-04-16T07:32:35;98724.00;;;18.74;100.00
10618;BME280;5356;43.526;26.534;2023-04-16T07:35:00;98731.38;;;18.92;100.00
10618;BME280;5356;43.526;26.534;2023-04-16T07:37:28;98730.25;;;18.98;100.00
10618;BME280;5356;43.526;26.534;2023-04-16T07:39:53;98729.34;;;19.08;100.00
10618;BME280;5356;43.526;26.534;2023-04-16T07:42:21;98729.63;;;19.06;100.00
10618;BME280;5356;43.526;26.534;2023-04-16T07:44:47;98724.63;;;19.19;100.00
10618;BME280;5356;43.526;26.534;2023-04-16T07:47:21;98720.31;;;19.18;100.00
10618;BME280;5356;43.526;26.534;2023-04-16T07:49:47;98716.63;;;19.33;100.00
10618;BME280;5356;43.526;26.534;2023-04-16T07:52:22;98724.25;;;19.49;100.00
10618;BME280;5356;43.526;26.534;2023-04-16T07:54:47;98720.81;;;19.68;100.00
10618;BME280;5356;43.526;26.534;2023-04-16T07:57:13;98730.25;;;19.70;100.00
10618;BME280;5356;43.526;26.534;2023-04-16T07:59:38;98736.88;;;19.78;100.00
10618;BME280;5356;43.526;26.534;2023-04-16T08:02:04;98733.44;;;19.72;100.00
10618;BME280;5356;43.526;26.534;2023-04-16T08:04:30;98728.41;;;19.66;100.00
10618;BME280;5356;43.526;26.534;2023-04-16T08:06:56;98736.44;;;19.71;100.00
10618;BME280;5356;43.526;26.534;2023-04-16T08:09:25;98741.28;;;19.74;100.00
10618;BME280;5356;43.526;26.534;2023-04-16T08:12:00;98754.06;;;19.63;100.00
10618;BME280;5356;43.526;26.534;2023-04-16T08:14:47;98744.69;;;19.56;100.00
10618;BME280;5356;43.526;26.534;2023-04-16T08:17:13;98741.78;;;19.76;100.00
10618;BME280;5356;43.526;26.534;2023-04-16T08:19:44;98741.66;;;20.05;100.00
10618;BME280;5356;43.526;26.534;2023-04-16T08:22:11;98728.06;;;20.10;100.00
10618;BME280;5356;43.526;26.534;2023-04-16T08:24:37;98724.94;;;20.36;100.00
10618;BME280;5356;43.526;26.534;2023-04-16T08:27:02;98730.06;;;20.37;100.00
10618;BME280;5356;43.526;26.534;2023-04-16T08:29:29;98730.84;;;20.38;100.00
10618;BME280;5356;43.526;26.534;2023-04-16T08:31:55;98732.69;;;20.24;100.00
10618;BME280;5356;43.526;26.534;2023-04-16T08:34:20;98733.09;;;20.17;100.00
10618;BME280;5356;43.526;26.534;2023-04-16T08:36:46;98735.19;;;20.01;100.00
10618;BME280;5356;43.526;26.534;2023-04-16T08:39:11;98731.47;;;19.97;100.00
10618;BME280;5356;43.526;26.534;2023-04-16T08:41:40;98743.63;;;20.00;100.00
10618;BME280;5356;43.526;26.534;2023-04-16T08:44:08;98733.19;;;19.93;100.00
10618;BME280;5356;43.526;26.534;2023-04-16T08:46:37;98734.78;;;19.94;100.00
10618;BME280;5356;43.526;26.534;2023-04-16T08:49:05;98725.97;;;20.21;100.00
10618;BME280;5356;43.526;26.534;2023-04-16T08:51:35;98723.28;;;20.21;100.00
10618;BME280;5356;43.526;26.534;2023-04-16T08:54:08;98717.56;;;20.23;100.00
10618;BME280;5356;43.526;26.534;2023-04-16T08:56:39;98719.59;;;20.50;100.00
10618;BME280;5356;43.526;26.534;2023-04-16T08:59:06;98733.03;;;20.55;99.48
10618;BME280;5356;43.526;26.534;2023-04-16T09:01:34;98726.59;;;20.51;97.36
10618;BME280;5356;43.526;26.534;2023-04-16T09:04:08;98726.22;;;20.57;97.67
10618;BME280;5356;43.526;26.534;2023-04-16T09:09:28;98729.09;;;20.47;92.96
10618;BME280;5356;43.526;26.534;2023-04-16T09:11:55;98731.16;;;20.36;91.96
10618;BME280;5356;43.526;26.534;2023-04-16T09:14:20;98731.81;;;20.28;91.30
10618;BME280;5356;43.526;26.534;2023-04-16T09:16:46;98736.75;;;20.07;91.87
10618;BME280;5356;43.526;26.534;2023-04-16T09:19:13;98725.75;;;20.17;92.06
10618;BME280;5356;43.526;26.534;2023-04-16T09:21:40;98722.53;;;20.15;92.60
10618;BME280;5356;43.526;26.534;2023-04-16T09:24:10;98723.44;;;20.11;93.87
10618;BME280;5356;43.526;26.534;2023-04-16T09:26:35;98713.50;;;20.06;95.58
10618;BME280;5356;43.526;26.534;2023-04-16T09:29:01;98711.69;;;20.02;96.95
10618;BME280;5356;43.526;26.534;2023-04-16T09:31:27;98724.69;;;20.00;99.09
10618;BME280;5356;43.526;26.534;2023-04-16T09:34:08;98723.72;;;20.09;99.43
10618;BME280;5356;43.526;26.534;2023-04-16T09:36:34;98734.63;;;20.04;100.00
10618;BME280;5356;43.526;26.534;2023-04-16T09:39:01;98732.50;;;19.82;100.00
10618;BME280;5356;43.526;26.534;2023-04-16T09:41:31;98734.94;;;19.60;100.00
10618;BME280;5356;43.526;26.534;2023-04-16T09:44:01;98730.22;;;19.46;100.00
10618;BME280;5356;43.526;26.534;2023-04-16T09:46:30;98724.72;;;19.33;100.00
10618;BME280;5356;43.526;26.534;2023-04-16T09:48:56;98722.59;;;19.29;100.00
10618;BME280;5356;43.526;26.534;2023-04-16T09:51:21;98721.00;;;19.28;100.00
10618;BME280;5356;43.526;26.534;2023-04-16T09:53:50;98720.94;;;19.10;100.00
10618;BME280;5356;43.526;26.534;2023-04-16T09:56:16;98713.13;;;18.84;100.00
10618;BME280;5356;43.526;26.534;2023-04-16T09:58:41;98729.47;;;18.63;100.00
10618;BME280;5356;43.526;26.534;2023-04-16T10:01:11;98728.22;;;18.51;100.00
10618;BME280;5356;43.526;26.534;2023-04-16T10:03:39;98722.38;;;18.44;100.00
10618;BME280;5356;43.526;26.534;2023-04-16T10:06:17;98722.38;;;18.44;100.00
10618;BME280;5356;43.526;26.534;2023-04-16T10:08:47;98723.19;;;18.39;100.00
10618;BME280;5356;43.526;26.534;2023-04-16T10:11:17;98722.19;;;18.30;100.00
10618;BME280;5356;43.526;26.534;2023-04-16T10:13:43;98730.44;;;18.09;100.00
10618;BME280;5356;43.526;26.534;2023-04-16T10:16:09;98746.25;;;17.82;100.00
10618;BME280;5356;43.526;26.534;2023-04-16T10:18:35;98747.31;;;17.76;100.00
10618;BME280;5356;43.526;26.534;2023-04-16T10:21:02;98764.72;;;17.39;100.00
10618;BME280;5356;43.526;26.534;2023-04-16T10:23:28;98756.72;;;17.13;100.00
10618;BME280;5356;43.526;26.534;2023-04-16T10:25:55;98768.03;;;17.00;100.00
10618;BME280;5356;43.526;26.534;2023-04-16T10:28:21;98787.13;;;16.98;100.00
10618;BME280;5356;43.526;26.534;2023-04-16T10:30:48;98783.63;;;16.93;100.00
10618;BME280;5356;43.526;26.534;2023-04-16T10:33:28;98789.06;;;16.82;100.00
10618;BME280;5356;43.526;26.534;2023-04-16T10:36:10;98797.91;;;16.57;100.00
10618;BME280;5356;43.526;26.534;2023-04-16T10:38:59;98801.13;;;16.49;100.00
10618;BME280;5356;43.526;26.534;2023-04-16T10:41:25;98814.81;;;16.37;100.00
10618;BME280;5356;43.526;26.534;2023-04-16T10:43:51;98805.09;;;16.11;100.00
10618;BME280;5356;43.526;26.534;2023-04-16T10:46:22;98786.22;;;15.96;100.00
10618;BME280;5356;43.526;26.534;2023-04-16T10:49:11;98784.03;;;15.82;100.00
10618;BME280;5356;43.526;26.534;2023-04-16T10:51:41;98777.75;;;15.61;100.00
10618;BME280;5356;43.526;26.534;2023-04-16T10:56:37;98779.22;;;15.26;100.00
10618;BME280;5356;43.526;26.534;2023-04-16T10:59:12;98762.84;;;15.23;100.00
10618;BME280;5356;43.526;26.534;2023-04-16T11:01:42;98744.75;;;15.08;100.00
10618;BME280;5356;43.526;26.534;2023-04-16T11:10:12;98722.94;;;14.94;100.00
10618;BME280;5356;43.526;26.534;2023-04-16T11:12:42;98722.47;;;15.02;100.00
10618;BME280;5356;43.526;26.534;2023-04-16T11:15:13;98718.53;;;15.15;100.00
10618;BME280;5356;43.526;26.534;2023-04-16T11:17:47;98714.56;;;15.33;100.00
10618;BME280;5356;43.526;26.534;2023-04-16T11:20:26;98712.91;;;15.22;100.00
10618;BME280;5356;43.526;26.534;2023-04-16T11:22:54;98695.66;;;15.08;100.00
10618;BME280;5356;43.526;26.534;2023-04-16T11:25:21;98691.41;;;15.12;100.00
10618;BME280;5356;43.526;26.534;2023-04-16T11:27:48;98689.03;;;15.25;100.00
10618;BME280;5356;43.526;26.534;2023-04-16T11:30:14;98679.16;;;15.41;100.00
10618;BME280;5356;43.526;26.534;2023-04-16T11:32:40;98671.97;;;15.62;100.00
10618;BME280;5356;43.526;26.534;2023-04-16T11:35:18;98670.97;;;15.84;100.00
10618;BME280;5356;43.526;26.534;2023-04-16T11:37:44;98665.34;;;16.16;100.00
10618;BME280;5356;43.526;26.534;2023-04-16T11:40:11;98660.50;;;16.44;100.00
10618;BME280;5356;43.526;26.534;2023-04-16T11:42:41;98659.13;;;16.61;100.00
10618;BME280;5356;43.526;26.534;2023-04-16T11:45:08;98655.88;;;16.80;100.00
10618;BME280;5356;43.526;26.534;2023-04-16T11:50:41;98646.88;;;17.15;100.00
10618;BME280;5356;43.526;26.534;2023-04-16T11:53:07;98640.09;;;17.28;100.00
10618;BME280;5356;43.526;26.534;2023-04-16T11:55:42;98634.34;;;17.45;100.00
10618;BME280;5356;43.526;26.534;2023-04-16T11:58:12;98628.81;;;17.70;100.00
10618;BME280;5356;43.526;26.534;2023-04-16T12:00:39;98633.53;;;17.89;100.00
10618;BME280;5356;43.526;26.534;2023-04-16T12:03:05;98648.97;;;18.17;100.00
10618;BME280;5356;43.526;26.534;2023-04-16T12:05:38;98645.00;;;18.39;100.00
10618;BME280;5356;43.526;26.534;2023-04-16T12:08:06;98636.19;;;18.57;100.00
10618;BME280;5356;43.526;26.534;2023-04-16T12:10:35;98634.91;;;18.79;100.00
10618;BME280;5356;43.526;26.534;2023-04-16T12:13:15;98628.28;;;18.90;100.00
10618;BME280;5356;43.526;26.534;2023-04-16T12:15:48;98626.38;;;19.15;100.00
10618;BME280;5356;43.526;26.534;2023-04-16T12:18:14;98627.00;;;19.31;100.00
10618;BME280;5356;43.526;26.534;2023-04-16T12:20:41;98627.19;;;19.53;100.00
10618;BME280;5356;43.526;26.534;2023-04-16T12:23:07;98633.56;;;19.62;100.00
10618;BME280;5356;43.526;26.534;2023-04-16T12:25:33;98629.50;;;19.65;100.00
10618;BME280;5356;43.526;26.534;2023-04-16T12:27:59;98618.31;;;19.90;100.00
10618;BME280;5356;43.526;26.534;2023-04-16T12:30:25;98612.16;;;20.17;100.00
10618;BME280;5356;43.526;26.534;2023-04-16T12:33:14;98618.53;;;20.40;100.00
10618;BME280;5356;43.526;26.534;2023-04-16T12:35:41;98612.84;;;20.42;100.00
10618;BME280;5356;43.526;26.534;2023-04-16T12:38:08;98608.31;;;20.37;100.00
10618;BME280;5356;43.526;26.534;2023-04-16T12:40:39;98611.31;;;20.36;100.00
10618;BME280;5356;43.526;26.534;2023-04-16T12:43:04;98610.22;;;20.51;100.00
10618;BME280;5356;43.526;26.534;2023-04-16T12:45:30;98613.97;;;20.55;100.00
10618;BME280;5356;43.526;26.534;2023-04-16T12:47:55;98613.88;;;20.60;100.00
10618;BME280;5356;43.526;26.534;2023-04-16T12:50:21;98615.94;;;20.49;100.00
10618;BME280;5356;43.526;26.534;2023-04-16T12:52:47;98611.34;;;20.50;100.00
10618;BME280;5356;43.526;26.534;2023-04-16T12:55:13;98611.94;;;20.47;100.00
10618;BME280;5356;43.526;26.534;2023-04-16T12:57:39;98605.28;;;20.25;100.00
10618;BME280;5356;43.526;26.534;2023-04-16T13:00:05;98607.69;;;20.13;100.00
10618;BME280;5356;43.526;26.534;2023-04-16T13:02:32;98604.72;;;20.09;100.00
10618;BME280;5356;43.526;26.534;2023-04-16T13:04:58;98608.94;;;20.15;100.00